ADDS TAF Board (Experimental) INFO

IDs: Format: Expanded Condensed

Updated at: 1154 UTC 21 Oct 2014

KLAS - Las Vegas/McCarran I, NV, US

Issued at 1120 UTC 21 Oct 2014
Time1056Z21/12Z21/13Z21/14Z21/15Z21/16Z21/17Z21/18Z21/19Z21/20Z21/21Z21/22Z21/23Z22/00Z
TypeOBSPRVLPRVLPRVLPRVLPRVLPRVLPRVLPRVLPRVLPRVLPRVLPRVLPRVL
VIS10>6>6>6>6>6>6>6>6>6>6>6>6>6
CIG----------------------------
CoverFEWFEWFEWFEWFEWFEWFEWFEWFEWFEWFEWFEWFEWFEW
FltCat--VFRVFRVFRVFRVFRVFRVFRVFRVFRVFRVFRVFRVFR
WX----------------------------
WDir190190190190VRBVRBVRBVRB200200200200200200
WSpd121010104444777777
WGst----------------------------
R01/19
XWnd-3-3-3-3VRBVRBVRBVRB-1-1-1-1-1-1
HWnd-12-10-10-10VRBVRBVRBVRB-7-7-7-7-7-7
R07/25
XWnd-12-10-10-10VRBVRBVRBVRB-7-7-7-7-7-7
HWnd-2-2-2-2VRBVRBVRBVRB-2-2-2-2-2-2
Raw TAF
KLAS 211120Z 2112/2212 19010KT P6SM FEW160
  FM211500 VRB04KT P6SM FEW250
  FM211900 20007KT P6SM FEW250


Raw METAR
KLAS 211056Z 19012KT 10SM FEW170 23/03 A2981 RMK AO2 SLP070 T02280033

TAF Board Legend

Hazard VFR MVFR IFR LIFR
Visibility (sm) >5 3≤X≤5 1≤X<3 <1
Ceiling (100 ft) >30 10≤X≤30 5≤X<10 <5
Wind Speed (kt) <10 10≤X<20 20≤X<30 ≥30
Wind Gust (kt) <15 15≤X<25 25≤X<35 ≥35
Weather No Wx Reported VCTS,-TS,-FZRA TS,FZRA +TS,+FZRA


Page loaded:  11:54 UTC  |   04:54 AM Pacific  |   05:54 AM Mountain  |   06:54 AM Central  |   07:54 AM Eastern

 

ADVISORIES

FORECASTS

FORECASTS

OBSERVATIONS

USER TOOLS

ABOUT US